createdAt,value
2022-12-25T00:00:41.383Z,100643.09
2022-12-25T00:03:44.447Z,100643.66
2022-12-25T00:06:46.666Z,100655.69
2022-12-25T00:09:49.228Z,100666.69
2022-12-25T00:12:52.090Z,100667.50
2022-12-25T00:15:55.276Z,100667.78
2022-12-25T00:19:01.269Z,100671.28
2022-12-25T00:22:03.833Z,100666.47
2022-12-25T00:25:06.334Z,100680.13
2022-12-25T00:28:08.881Z,100678.78
2022-12-25T00:31:17.645Z,100691.69
2022-12-25T00:34:20.327Z,100692.78
2022-12-25T00:37:22.528Z,100691.97
2022-12-25T00:40:25.030Z,100692.81
2022-12-25T00:43:27.163Z,100698.72
2022-12-25T00:46:29.757Z,100692.53
2022-12-25T00:49:32.128Z,100701.09
2022-12-25T00:52:34.781Z,100711.59
2022-12-25T00:55:37.154Z,100709.16
2022-12-25T00:58:39.695Z,100725.03
2022-12-25T01:01:42.137Z,100724.53
2022-12-25T01:04:44.849Z,100715.63
2022-12-25T01:07:47.011Z,100718.87
2022-12-25T01:11:01.205Z,100717.81
2022-12-25T01:14:03.567Z,100716.97
2022-12-25T01:17:06.076Z,100717.25
2022-12-25T01:20:08.764Z,100714.00
2022-12-25T01:23:11.656Z,100721.25
2022-12-25T01:26:15.409Z,100727.44
2022-12-25T01:29:17.854Z,100727.44
2022-12-25T01:32:20.720Z,100727.72
2022-12-25T01:35:23.324Z,100725.03
2022-12-25T01:38:25.740Z,100723.66
2022-12-25T01:41:28.266Z,100722.59
2022-12-25T01:44:36.601Z,100745.41
2022-12-25T01:47:39.249Z,100743.25
2022-12-25T01:50:45.961Z,100734.94
2022-12-25T01:53:49.372Z,100730.88
2022-12-25T01:56:55.246Z,100736.25
2022-12-25T01:59:59.877Z,100729.78
2022-12-25T02:03:03.122Z,100730.88
2022-12-25T02:06:06.197Z,100728.69
2022-12-25T02:09:08.353Z,100735.44
2022-12-25T02:12:20.040Z,100724.41
2022-12-25T02:15:27.707Z,100727.91
2022-12-25T02:18:39.266Z,100732.47
2022-12-25T02:22:05.824Z,100737.84
2022-12-25T02:25:37.926Z,100741.63
2022-12-25T02:29:00.703Z,100743.22
2022-12-25T02:32:18.486Z,100734.94
2022-12-25T02:35:28.047Z,100747.00
2022-12-25T02:38:36.339Z,100744.88
2022-12-25T02:41:43.118Z,100754.53
2022-12-25T02:45:08.115Z,100752.66
2022-12-25T02:48:30.272Z,100757.22
2022-12-25T02:51:55.673Z,100753.72
2022-12-25T02:55:24.233Z,100751.84
2022-12-25T02:59:06.219Z,100754.25
2022-12-25T03:02:27.861Z,100759.37
2022-12-25T03:05:51.907Z,100766.09
2022-12-25T03:09:17.854Z,100777.38
2022-12-25T03:12:34.543Z,100779.25
2022-12-25T03:15:55.300Z,100772.81
2022-12-25T03:18:58.740Z,100784.34
2022-12-25T03:22:19.946Z,100784.34
2022-12-25T03:25:41.337Z,100773.91
2022-12-25T03:28:43.403Z,100765.28
2022-12-25T03:31:57.982Z,100778.19
2022-12-25T03:35:31.495Z,100788.66
2022-12-25T03:39:19.041Z,100792.16
2022-12-25T03:42:49.618Z,100799.34
2022-12-25T03:46:16.722Z,100796.94
2022-12-25T03:49:46.640Z,100819.47
2022-12-25T03:53:11.060Z,100816.78
2022-12-25T03:56:34.672Z,100827.03
2022-12-25T03:59:55.436Z,100820.56
2022-12-25T04:03:16.312Z,100829.72
2022-12-25T04:06:37.355Z,100819.00
2022-12-25T04:09:58.223Z,100824.09
2022-12-25T04:13:19.307Z,100814.44
2022-12-25T04:16:40.290Z,100813.09
2022-12-25T04:20:01.094Z,100802.09
2022-12-25T04:23:21.835Z,100807.19
2022-12-25T04:26:42.708Z,100806.13
2022-12-25T04:30:03.273Z,100810.94
2022-12-25T04:33:24.416Z,100821.41
2022-12-25T04:36:26.548Z,100816.03
2022-12-25T04:39:29.004Z,100808.81
2022-12-25T04:42:31.208Z,100810.97
2022-12-25T04:45:33.721Z,100809.34
2022-12-25T04:48:37.072Z,100796.97
2022-12-25T04:51:39.694Z,100794.03
2022-12-25T04:54:41.824Z,100793.22
2022-12-25T04:57:45.109Z,100801.56
2022-12-25T05:00:47.334Z,100805.84
2022-12-25T05:03:49.867Z,100816.31
2022-12-25T05:06:52.098Z,100823.81
2022-12-25T05:09:54.539Z,100823.84
2022-12-25T05:12:56.771Z,100803.69
2022-12-25T05:15:59.353Z,100825.47
2022-12-25T05:19:01.637Z,100823.31
2022-12-25T05:22:04.083Z,100823.31
2022-12-25T05:25:06.789Z,100823.31
2022-12-25T05:28:09.272Z,100826.28
2022-12-25T05:31:11.889Z,100821.69
2022-12-25T05:34:14.424Z,100832.97
2022-12-25T05:37:16.979Z,100829.22
2022-12-25T05:40:19.474Z,100823.84
2022-12-25T05:43:21.732Z,100839.91
2022-12-25T05:46:24.379Z,100837.75
2022-12-25T05:49:26.666Z,100835.12
2022-12-25T05:52:33.567Z,100832.16
2022-12-25T05:55:37.455Z,100849.88
2022-12-25T05:58:40.868Z,100849.63
2022-12-25T06:01:43.116Z,100852.88
2022-12-25T06:04:45.662Z,100851.75
2022-12-25T06:07:47.811Z,100848.28
2022-12-25T06:10:50.313Z,100843.41
2022-12-25T06:13:52.996Z,100839.94
2022-12-25T06:17:02.938Z,100848.25
2022-12-25T06:20:06.655Z,100836.91
2022-12-25T06:23:09.225Z,100833.66
2022-12-25T06:26:17.594Z,100843.59
2022-12-25T06:29:20.224Z,100838.22
2022-12-25T06:32:22.465Z,100847.03
2022-12-25T06:35:25.253Z,100853.16
2022-12-25T06:38:28.534Z,100862.19
2022-12-25T06:41:31.319Z,100872.88
2022-12-25T06:44:33.801Z,100872.28
2022-12-25T06:47:39.485Z,100884.28
2022-12-25T06:50:44.702Z,100872.66
2022-12-25T06:53:48.250Z,100878.06
2022-12-25T06:56:51.119Z,100875.72
2022-12-25T06:59:55.456Z,100894.44
2022-12-25T07:02:58.234Z,100908.56
2022-12-25T07:06:00.893Z,100916.56
2022-12-25T07:09:03.450Z,100923.53
2022-12-25T07:12:06.977Z,100929.16
2022-12-25T07:15:09.795Z,100937.94
2022-12-25T07:18:12.310Z,100936.13
2022-12-25T07:21:17.658Z,100943.91
2022-12-25T07:24:21.559Z,100946.63
2022-12-25T07:27:24.224Z,100944.28
2022-12-25T07:30:28.341Z,100952.63
2022-12-25T07:33:30.900Z,100945.13
2022-12-25T07:36:33.348Z,100964.25
2022-12-25T07:39:35.576Z,100959.25
2022-12-25T07:42:38.051Z,100958.94
2022-12-25T07:45:40.293Z,100948.38
2022-12-25T07:48:42.945Z,100953.50
2022-12-25T07:51:45.158Z,100957.06
2022-12-25T07:54:47.831Z,100960.62
2022-12-25T07:57:50.167Z,100975.97
2022-12-25T08:00:52.979Z,100975.47
2022-12-25T08:03:58.632Z,100979.28
2022-12-25T08:07:00.858Z,100985.72
2022-12-25T08:10:04.257Z,100994.59
2022-12-25T08:13:12.407Z,101001.28
2022-12-25T08:16:16.932Z,101004.00
2022-12-25T08:19:19.240Z,101010.44
2022-12-25T08:22:21.746Z,101007.75
2022-12-25T08:25:23.888Z,101005.09
2022-12-25T08:28:26.323Z,101005.12
2022-12-25T08:31:29.907Z,101011.88
2022-12-25T08:34:32.583Z,101006.34
2022-12-25T08:37:34.893Z,101008.47
2022-12-25T08:40:37.457Z,101014.69
2022-12-25T08:43:39.927Z,101009.59
2022-12-25T08:46:42.773Z,101013.97
2022-12-25T08:49:45.007Z,101008.34
2022-12-25T08:52:47.592Z,101011.09
2022-12-25T08:55:50.149Z,101011.09
2022-12-25T08:58:52.611Z,101021.06
2022-12-25T09:01:55.133Z,101012.19
2022-12-25T09:04:58.083Z,101011.69
2022-12-25T09:08:00.264Z,101014.66
2022-12-25T09:11:04.338Z,101020.03
2022-12-25T09:14:06.835Z,101006.59
2022-12-25T09:17:09.314Z,101017.59
2022-12-25T09:20:11.558Z,101007.91
2022-12-25T09:23:14.570Z,101010.06
2022-12-25T09:26:18.512Z,101013.00
2022-12-25T09:29:21.194Z,101016.72
2022-12-25T09:32:23.390Z,101013.75
2022-12-25T09:35:25.861Z,101019.34
2022-12-25T09:38:28.611Z,101016.34
2022-12-25T09:41:33.687Z,101012.78
2022-12-25T09:44:43.953Z,101018.12
2022-12-25T09:47:49.447Z,101017.81
2022-12-25T09:51:13.121Z,101016.31
2022-12-25T09:54:34.744Z,101015.69
2022-12-25T09:57:36.939Z,101019.91
2022-12-25T10:00:50.351Z,101022.47
2022-12-25T10:04:01.547Z,101024.22
2022-12-25T10:07:47.684Z,101014.41
2022-12-25T10:10:57.137Z,101012.59
2022-12-25T10:14:10.838Z,101013.28
2022-12-25T10:17:44.830Z,100999.37
2022-12-25T10:20:46.888Z,100997.31
2022-12-25T10:23:56.692Z,100997.97
2022-12-25T10:27:02.521Z,100993.25
2022-12-25T10:30:37.655Z,100992.63
2022-12-25T10:33:39.819Z,100990.81
2022-12-25T10:36:44.911Z,100986.44
2022-12-25T10:39:47.318Z,100990.00
2022-12-25T10:42:54.742Z,100987.25
2022-12-25T10:45:56.985Z,100987.09
2022-12-25T10:49:02.111Z,100979.41
2022-12-25T10:52:18.715Z,100980.25
2022-12-25T10:55:26.515Z,100988.28
2022-12-25T10:58:31.514Z,100991.91
2022-12-25T11:01:34.165Z,100984.75
2022-12-25T11:04:36.665Z,100977.53
2022-12-25T11:07:53.795Z,100970.22
2022-12-25T11:11:08.681Z,100967.94
2022-12-25T11:14:18.869Z,100963.44
2022-12-25T11:17:23.930Z,100960.59
2022-12-25T11:20:26.894Z,100951.50
2022-12-25T11:23:31.591Z,100949.09
2022-12-25T11:26:47.794Z,100952.72
2022-12-25T11:29:54.849Z,100948.78
2022-12-25T11:33:12.229Z,100948.31
2022-12-25T11:36:24.481Z,100942.56
2022-12-25T11:39:32.708Z,100944.69
2022-12-25T11:42:42.555Z,100944.56
2022-12-25T11:45:54.962Z,100948.19
2022-12-25T11:49:05.429Z,100942.34
2022-12-25T11:52:12.017Z,100947.25
2022-12-25T11:55:33.262Z,100947.00
2022-12-25T11:58:46.330Z,100943.88
2022-12-25T12:02:16.733Z,100943.38
2022-12-25T12:05:25.457Z,100938.97
2022-12-25T12:08:27.955Z,100944.59
2022-12-25T12:12:19.494Z,100934.03
2022-12-25T12:15:21.576Z,100934.28
2022-12-25T12:18:32.358Z,100938.47
2022-12-25T12:21:34.582Z,100930.44
2022-12-25T12:24:47.628Z,100938.37
2022-12-25T12:28:04.888Z,100939.34
2022-12-25T12:31:09.259Z,100932.09
2022-12-25T12:34:48.071Z,100945.66
2022-12-25T12:37:59.471Z,100943.06
2022-12-25T12:41:04.937Z,100943.19
2022-12-25T12:44:07.733Z,100946.53
2022-12-25T12:47:27.665Z,100944.16
2022-12-25T12:50:35.065Z,100953.38
2022-12-25T12:53:42.597Z,100954.50
2022-12-25T12:57:02.273Z,100942.53
2022-12-25T13:00:23.242Z,100951.78
2022-12-25T13:03:38.372Z,100954.12
2022-12-25T13:06:46.175Z,100964.19
2022-12-25T13:10:10.906Z,100957.41
2022-12-25T13:13:20.642Z,100966.63
2022-12-25T13:16:34.737Z,100968.66
2022-12-25T13:19:37.768Z,100963.06
2022-12-25T13:22:46.455Z,100955.81
2022-12-25T13:25:53.072Z,100951.44
2022-12-25T13:28:56.260Z,100953.09
2022-12-25T13:32:00.429Z,100953.78
2022-12-25T13:35:03.706Z,100960.25
2022-12-25T13:38:14.676Z,100966.34
2022-12-25T13:41:38.769Z,100960.41
2022-12-25T13:45:00.573Z,100952.28
2022-12-25T13:48:15.599Z,100951.59
2022-12-25T13:51:20.861Z,100957.72
2022-12-25T13:54:23.340Z,100957.41
2022-12-25T13:57:30.889Z,100961.94
2022-12-25T14:00:45.869Z,100966.38
2022-12-25T14:03:48.820Z,100965.66
2022-12-25T14:06:52.681Z,100968.38
2022-12-25T14:10:01.467Z,100966.75
2022-12-25T14:13:11.259Z,100961.84
2022-12-25T14:16:17.056Z,100957.31
2022-12-25T14:19:30.169Z,100968.84
2022-12-25T14:22:34.420Z,100969.13
2022-12-25T14:25:45.471Z,100964.62
2022-12-25T14:29:02.008Z,100965.31
2022-12-25T14:32:06.775Z,100968.13
2022-12-25T14:35:11.536Z,100976.53
2022-12-25T14:38:34.912Z,100983.84
2022-12-25T14:41:41.805Z,100973.72
2022-12-25T14:44:44.002Z,100984.56
2022-12-25T14:47:52.034Z,100983.25
2022-12-25T14:51:15.721Z,100992.47
2022-12-25T14:54:23.335Z,100987.34
2022-12-25T14:57:29.503Z,100989.06
2022-12-25T15:00:35.281Z,100986.44
2022-12-25T15:03:38.083Z,100984.91
2022-12-25T15:07:07.091Z,100982.59
2022-12-25T15:10:57.623Z,100992.75
2022-12-25T15:13:36.077Z,100993.66
2022-12-25T15:16:42.565Z,100999.78
2022-12-25T15:19:45.037Z,100990.97
2022-12-25T15:23:17.918Z,100987.75
2022-12-25T15:26:13.322Z,100980.81
2022-12-25T15:29:15.532Z,100989.87
2022-12-25T15:32:21.073Z,100987.03
2022-12-25T15:35:23.280Z,100987.53
2022-12-25T15:38:25.796Z,100994.62
2022-12-25T15:41:52.826Z,100985.56
2022-12-25T15:44:55.370Z,100986.66
2022-12-25T15:47:58.167Z,100995.94
2022-12-25T15:51:01.930Z,101007.88
2022-12-25T15:54:04.584Z,100999.22
2022-12-25T15:57:16.938Z,101002.59
2022-12-25T16:00:22.692Z,100996.72
2022-12-25T16:03:26.317Z,101002.72
2022-12-25T16:06:28.524Z,100997.38
2022-12-25T16:09:31.056Z,100997.44
2022-12-25T16:12:33.633Z,100993.63
2022-12-25T16:15:37.018Z,100993.06
2022-12-25T16:18:46.723Z,100994.69
2022-12-25T16:21:50.093Z,100996.34
2022-12-25T16:24:53.031Z,100991.72
2022-12-25T16:27:55.474Z,100989.09
2022-12-25T16:30:57.691Z,100985.38
2022-12-25T16:34:00.256Z,100987.53
2022-12-25T16:37:02.728Z,100974.56
2022-12-25T16:40:09.558Z,100972.44
2022-12-25T16:43:11.809Z,100969.22
2022-12-25T16:46:17.567Z,100980.31
2022-12-25T16:49:19.803Z,100983.81
2022-12-25T16:52:22.229Z,100981.91
2022-12-25T16:55:29.743Z,100976.81
2022-12-25T16:58:32.821Z,100974.66
2022-12-25T17:01:35.252Z,100967.91
2022-12-25T17:04:38.946Z,100964.69
2022-12-25T17:07:41.297Z,100964.47
2022-12-25T17:10:43.825Z,100962.84
2022-12-25T17:13:47.751Z,100966.34
2022-12-25T17:16:51.209Z,100962.84
2022-12-25T17:19:53.408Z,100967.22
2022-12-25T17:22:57.679Z,100972.91
2022-12-25T17:26:01.556Z,100969.66
2022-12-25T17:29:04.179Z,100968.66
2022-12-25T17:32:15.638Z,100968.41
2022-12-25T17:35:20.638Z,100962.16
2022-12-25T17:38:22.819Z,100961.34
2022-12-25T17:41:25.254Z,100947.56
2022-12-25T17:44:27.515Z,100938.16
2022-12-25T17:47:30.382Z,100929.31
2022-12-25T17:50:37.387Z,100939.28
2022-12-25T17:53:46.518Z,100945.53
2022-12-25T17:56:49.403Z,100943.13
2022-12-25T17:59:51.913Z,100936.47
2022-12-25T18:02:54.421Z,100944.38
2022-12-25T18:06:00.499Z,100945.00
2022-12-25T18:09:06.013Z,100948.84
2022-12-25T18:12:09.323Z,100942.13
2022-12-25T18:15:11.953Z,100947.03
2022-12-25T18:18:15.223Z,100941.91
2022-12-25T18:21:18.051Z,100949.25
2022-12-25T18:24:20.535Z,100944.94
2022-12-25T18:27:22.791Z,100940.94
2022-12-25T18:30:25.256Z,100933.13
2022-12-25T18:33:28.085Z,100935.06
2022-12-25T18:36:31.149Z,100928.31
2022-12-25T18:39:33.467Z,100938.84
2022-12-25T18:42:38.912Z,100932.09
2022-12-25T18:45:42.550Z,100928.00
2022-12-25T18:48:45.414Z,100926.62
2022-12-25T18:51:49.189Z,100920.53
2022-12-25T18:54:52.313Z,100926.75
2022-12-25T18:57:54.699Z,100925.16
2022-12-25T19:00:57.726Z,100918.94
2022-12-25T19:04:05.164Z,100915.41
2022-12-25T19:07:08.368Z,100920.00
2022-12-25T19:10:10.679Z,100913.56
2022-12-25T19:13:13.200Z,100918.91
2022-12-25T19:16:15.823Z,100907.41
2022-12-25T19:19:21.349Z,100906.56
2022-12-25T19:22:23.635Z,100911.63
2022-12-25T19:25:26.163Z,100908.66
2022-12-25T19:28:28.348Z,100914.06
2022-12-25T19:31:30.964Z,100915.72
2022-12-25T19:34:33.221Z,100913.81
2022-12-25T19:37:35.852Z,100913.28
2022-12-25T19:40:39.853Z,100918.91
2022-12-25T19:43:44.439Z,100928.91
2022-12-25T19:46:46.674Z,100931.09
2022-12-25T19:49:52.989Z,100918.94
2022-12-25T19:52:55.938Z,100913.78
2022-12-25T19:56:01.375Z,100906.81
2022-12-25T19:59:03.758Z,100903.03
2022-12-25T20:02:06.841Z,100899.25
2022-12-25T20:05:09.631Z,100893.81
2022-12-25T20:08:12.202Z,100878.75
2022-12-25T20:11:16.837Z,100870.94
2022-12-25T20:14:19.708Z,100862.00
2022-12-25T20:17:22.457Z,100859.31
2022-12-25T20:20:29.472Z,100866.25
2022-12-25T20:23:33.949Z,100870.87
2022-12-25T20:26:37.839Z,100884.66
2022-12-25T20:29:41.991Z,100891.16
2022-12-25T20:32:50.157Z,100883.06
2022-12-25T20:35:53.191Z,100877.09
2022-12-25T20:38:55.857Z,100867.84
2022-12-25T20:41:58.559Z,100865.47
2022-12-25T20:45:00.951Z,100855.44
2022-12-25T20:48:08.181Z,100853.78
2022-12-25T20:51:14.683Z,100864.78
2022-12-25T20:54:17.286Z,100858.84
2022-12-25T20:57:19.607Z,100863.44
2022-12-25T21:00:22.834Z,100875.34
2022-12-25T21:03:25.258Z,100874.22
2022-12-25T21:06:27.978Z,100872.53
2022-12-25T21:09:30.167Z,100874.13
2022-12-25T21:12:32.598Z,100865.38
2022-12-25T21:15:35.063Z,100861.88
2022-12-25T21:18:37.871Z,100842.25
2022-12-25T21:21:43.619Z,100841.31
2022-12-25T21:24:46.185Z,100861.28
2022-12-25T21:27:48.365Z,100859.91
2022-12-25T21:30:50.948Z,100858.53
2022-12-25T21:33:55.029Z,100856.34
2022-12-25T21:36:58.019Z,100850.66
2022-12-25T21:40:00.275Z,100842.81
2022-12-25T21:43:03.336Z,100843.84
2022-12-25T21:46:08.417Z,100849.81
2022-12-25T21:49:11.037Z,100843.37
2022-12-25T21:52:14.330Z,100839.38
2022-12-25T21:55:16.829Z,100842.81
2022-12-25T21:58:18.982Z,100844.47
2022-12-25T22:01:21.532Z,100854.75
2022-12-25T22:04:24.112Z,100861.75
2022-12-25T22:07:26.289Z,100863.34
2022-12-25T22:10:28.796Z,100860.09
2022-12-25T22:13:49.532Z,100876.56
2022-12-25T22:17:10.691Z,100870.66
2022-12-25T22:20:23.933Z,100861.44
2022-12-25T22:23:26.384Z,100860.91
2022-12-25T22:26:28.542Z,100862.78
2022-12-25T22:29:30.975Z,100850.91
2022-12-25T22:32:33.637Z,100849.31
2022-12-25T22:35:36.155Z,100845.00
2022-12-25T22:38:42.110Z,100854.25
2022-12-25T22:41:44.577Z,100845.34
2022-12-25T22:44:46.733Z,100846.59
2022-12-25T22:47:49.473Z,100855.00
2022-12-25T22:50:51.696Z,100866.34
2022-12-25T22:53:57.414Z,100862.88
2022-12-25T22:57:02.578Z,100852.09
2022-12-25T23:00:08.779Z,100846.16
2022-12-25T23:03:11.296Z,100851.09
2022-12-25T23:06:13.982Z,100838.62
2022-12-25T23:09:24.259Z,100829.16
2022-12-25T23:12:45.901Z,100827.59
2022-12-25T23:15:48.062Z,100834.91
2022-12-25T23:19:09.414Z,100843.84
2022-12-25T23:22:31.267Z,100841.94
2022-12-25T23:25:53.676Z,100839.81
2022-12-25T23:29:14.549Z,100846.06
2022-12-25T23:32:22.473Z,100844.69
2022-12-25T23:35:24.616Z,100845.78
2022-12-25T23:38:27.046Z,100836.84
2022-12-25T23:41:29.312Z,100825.00
2022-12-25T23:44:31.773Z,100820.41
2022-12-25T23:47:33.974Z,100822.31
2022-12-25T23:50:36.382Z,100819.06
2022-12-25T23:53:38.580Z,100807.50
2022-12-25T23:56:42.181Z,100810.44
2022-12-25T23:59:44.373Z,100811.56
